ラスベガス の空港の天気 - METARとTAF

マッカラン国際空港 ( KLAS / LAS ) - アメリカ ネバダ州ラスベガス
飛行場実況気象(Metar)
観測時間10/20 08:56 PDT (10/20 15:56 UTC)
風向・風速静穏 0m/s
視程10km以上
天気現象
少しの雲 雲底高度 4270m
気温20℃
湿度27%
気圧1019.5hPa
METARKLAS 201556Z 00000KT 10SM FEW140 20/01 A3015 RMK AO2 SLP195 T02000006
過去の天気等 Google飛行場航空写真 Wunderground天気予報

過去48時間のMETAR

飛行場予報(TAF)
発表時間: 10/20 07:30 PDT (10/20 14:30 UTC)
予報対象時間: 20日7時 PDT ~ 21日11時 PDT
風向・風速不定 2m/s
視程10km以上
なし
20日10時 PDT から
風向・風速北北東 5m/s
視程10km以上
全天の4割程度の雲 雲底高度 2440m
20日16時 PDT から
風向・風速不定 3m/s
視程10km以上
全天の8割程度の雲 雲底高度 2440m
20日23時 PDT から
風向・風速北北西 3m/s
視程10km以上
天気現象周辺でしゅう雨
全天を覆う雲 雲底高度 2130m
KLAS 201430Z 2014/2118 VRB04KT P6SM SKC
FM201700 03009KT P6SM SCT080
FM202300 VRB05KT P6SM BKN080
FM210600 33005KT P6SM VCSH OVC070